createdAt,value
2018-06-13T00:02:19.316Z,71.55
2018-06-13T00:04:47.398Z,71.46
2018-06-13T00:07:15.467Z,71.74
2018-06-13T00:09:43.584Z,71.03
2018-06-13T00:12:11.687Z,71.82
2018-06-13T00:14:39.805Z,71.38
2018-06-13T00:17:07.896Z,71.37
2018-06-13T00:19:35.990Z,71.25
2018-06-13T00:22:04.071Z,71.42
2018-06-13T00:24:32.161Z,71.48
2018-06-13T00:27:00.284Z,71.14
2018-06-13T00:29:28.366Z,71.40
2018-06-13T00:31:56.443Z,70.97
2018-06-13T00:34:24.546Z,71.86
2018-06-13T00:36:52.697Z,71.60
2018-06-13T00:39:20.779Z,71.70
2018-06-13T00:41:48.875Z,71.68
2018-06-13T00:44:16.959Z,71.09
2018-06-13T00:46:45.037Z,71.54
2018-06-13T00:49:13.125Z,71.11
2018-06-13T00:51:41.221Z,71.54
2018-06-13T00:54:15.972Z,71.43
2018-06-13T00:56:44.064Z,71.28
2018-06-13T00:59:12.164Z,71.48
2018-06-13T01:01:40.265Z,71.09
2018-06-13T01:04:08.347Z,71.03
2018-06-13T01:06:36.422Z,72.02
2018-06-13T01:09:07.055Z,71.42
2018-06-13T01:11:35.163Z,72.34
2018-06-13T01:14:03.370Z,72.11
2018-06-13T01:16:31.446Z,72.25
2018-06-13T01:18:59.533Z,72.98
2018-06-13T01:21:27.623Z,72.22
2018-06-13T01:23:55.709Z,72.55
2018-06-13T01:26:23.770Z,73.55
2018-06-13T01:28:51.847Z,72.82
2018-06-13T01:31:19.954Z,73.45
2018-06-13T01:33:48.071Z,73.32
2018-06-13T01:36:16.152Z,72.63
2018-06-13T01:38:44.271Z,73.87
2018-06-13T01:41:12.382Z,73.00
2018-06-13T01:43:40.480Z,73.80
2018-06-13T01:46:08.572Z,73.49
2018-06-13T01:48:36.679Z,73.13
2018-06-13T01:51:04.802Z,73.35
2018-06-13T01:53:32.890Z,73.21
2018-06-13T01:56:00.963Z,72.74
2018-06-13T01:58:29.072Z,73.38
2018-06-13T02:00:57.166Z,73.10
2018-06-13T02:03:25.261Z,73.70
2018-06-13T02:05:53.368Z,73.75
2018-06-13T02:08:21.487Z,73.80
2018-06-13T02:10:49.563Z,73.70
2018-06-13T02:13:17.634Z,74.12
2018-06-13T02:15:45.743Z,73.46
2018-06-13T02:18:13.848Z,73.91
2018-06-13T02:20:41.936Z,74.47
2018-06-13T02:23:10.002Z,73.73
2018-06-13T02:25:44.893Z,73.90
2018-06-13T02:28:13.142Z,74.43
2018-06-13T02:30:41.245Z,74.63
2018-06-13T02:33:09.319Z,74.30
2018-06-13T02:35:37.391Z,74.77
2018-06-13T02:38:05.456Z,74.89
2018-06-13T02:40:33.550Z,74.37
2018-06-13T02:43:01.642Z,74.90
2018-06-13T02:45:29.727Z,74.47
2018-06-13T02:47:57.827Z,75.32
2018-06-13T02:50:25.908Z,74.92
2018-06-13T02:52:54.432Z,74.64
2018-06-13T02:55:22.536Z,75.30
2018-06-13T02:57:50.623Z,74.80
2018-06-13T03:00:18.695Z,75.16
2018-06-13T03:02:46.780Z,74.89
2018-06-13T03:05:14.881Z,74.44
2018-06-13T03:07:42.977Z,73.67
2018-06-13T03:10:11.085Z,74.37
2018-06-13T03:12:39.186Z,73.56
2018-06-13T03:15:07.263Z,74.71
2018-06-13T03:17:35.406Z,73.71
2018-06-13T03:20:03.517Z,73.55
2018-06-13T03:22:31.609Z,73.69
2018-06-13T03:24:59.705Z,74.14
2018-06-13T03:27:27.804Z,72.53
2018-06-13T03:29:55.902Z,72.76
2018-06-13T03:32:23.999Z,73.32
2018-06-13T03:34:52.125Z,73.10
2018-06-13T03:37:20.244Z,72.93
2018-06-13T03:39:48.343Z,72.30
2018-06-13T03:42:16.423Z,72.17
2018-06-13T03:44:44.534Z,72.30
2018-06-13T03:47:12.640Z,71.20
2018-06-13T03:49:40.751Z,71.01
2018-06-13T03:52:08.841Z,71.37
2018-06-13T03:54:37.392Z,71.67
2018-06-13T03:57:05.492Z,71.37
2018-06-13T03:59:33.587Z,72.72
2018-06-13T04:02:01.679Z,72.72
2018-06-13T04:04:29.772Z,72.89
2018-06-13T04:06:57.877Z,73.36
2018-06-13T04:09:25.971Z,73.85
2018-06-13T04:11:54.039Z,73.95
2018-06-13T04:14:22.163Z,73.58
2018-06-13T04:16:50.256Z,73.84
2018-06-13T04:19:18.346Z,75.53
2018-06-13T04:21:46.411Z,75.75
2018-06-13T04:24:14.513Z,75.88
2018-06-13T04:26:42.599Z,76.75
2018-06-13T04:29:10.694Z,75.55
2018-06-13T04:31:38.791Z,76.59
2018-06-13T04:34:06.870Z,76.58
2018-06-13T04:36:34.956Z,75.33
2018-06-13T04:39:03.071Z,75.64
2018-06-13T04:41:31.144Z,75.16
2018-06-13T04:43:59.756Z,74.45
2018-06-13T04:46:27.859Z,74.33
2018-06-13T04:48:55.991Z,74.74
2018-06-13T04:51:24.091Z,74.89
2018-06-13T04:53:52.164Z,76.17
2018-06-13T04:56:20.243Z,77.12
2018-06-13T04:58:48.330Z,77.00
2018-06-13T05:01:16.481Z,76.46
2018-06-13T05:03:44.598Z,75.12
2018-06-13T05:06:12.720Z,75.24
2018-06-13T05:08:40.811Z,75.37
2018-06-13T05:11:08.904Z,75.72
2018-06-13T05:13:36.978Z,74.83
2018-06-13T05:16:05.078Z,74.69
2018-06-13T05:18:33.170Z,74.86
2018-06-13T05:21:01.260Z,74.84
2018-06-13T05:23:29.343Z,73.73
2018-06-13T05:25:57.441Z,74.59
2018-06-13T05:28:25.518Z,73.99
2018-06-13T05:30:53.639Z,71.83
2018-06-13T05:33:21.728Z,66.78
2018-06-13T05:35:49.827Z,66.20
2018-06-13T05:38:17.933Z,65.61
2018-06-13T05:40:46.047Z,65.22
2018-06-13T05:43:14.123Z,66.37
2018-06-13T05:45:42.227Z,65.16
2018-06-13T05:48:10.343Z,65.09
2018-06-13T05:50:38.433Z,65.93
2018-06-13T05:53:06.523Z,64.79
2018-06-13T05:55:34.647Z,64.52
2018-06-13T05:58:02.739Z,63.44
2018-06-13T06:00:30.811Z,64.23
2018-06-13T06:02:58.911Z,62.56
2018-06-13T06:05:27.006Z,63.24
2018-06-13T06:07:55.207Z,63.40
2018-06-13T06:10:23.377Z,62.63
2018-06-13T06:12:51.575Z,62.86
2018-06-13T06:15:19.659Z,62.13
2018-06-13T06:17:47.819Z,61.93
2018-06-13T06:20:15.892Z,63.32
2018-06-13T06:22:44.015Z,62.56
2018-06-13T06:25:12.157Z,62.97
2018-06-13T06:27:40.227Z,63.11
2018-06-13T06:30:08.355Z,63.38
2018-06-13T06:32:36.452Z,63.32
2018-06-13T06:35:04.550Z,62.55
2018-06-13T06:37:32.623Z,61.44
2018-06-13T06:40:00.707Z,60.94
2018-06-13T06:42:28.890Z,60.55
2018-06-13T06:44:57.171Z,61.17
2018-06-13T06:47:25.284Z,60.39
2018-06-13T06:49:53.392Z,61.43
2018-06-13T06:52:21.520Z,61.01
2018-06-13T06:54:49.626Z,59.56
2018-06-13T06:57:17.711Z,60.99
2018-06-13T06:59:46.811Z,61.26
2018-06-13T07:02:14.876Z,61.69
2018-06-13T07:04:43.071Z,61.20
2018-06-13T07:07:11.155Z,62.24
2018-06-13T07:09:39.235Z,61.65
2018-06-13T07:12:07.332Z,62.83
2018-06-13T07:14:35.418Z,61.52
2018-06-13T07:17:03.504Z,62.17
2018-06-13T07:19:31.588Z,61.45
2018-06-13T07:21:59.654Z,61.57
2018-06-13T07:24:27.751Z,62.26
2018-06-13T07:26:55.880Z,61.93
2018-06-13T07:29:23.944Z,62.03
2018-06-13T07:31:52.059Z,62.35
2018-06-13T07:34:20.126Z,61.84
2018-06-13T07:36:48.219Z,61.94
2018-06-13T07:39:16.283Z,61.95
2018-06-13T07:41:44.374Z,60.93
2018-06-13T07:44:12.503Z,61.73
2018-06-13T07:46:40.587Z,60.21
2018-06-13T07:49:08.659Z,60.95
2018-06-13T07:51:36.748Z,61.51
2018-06-13T07:54:04.835Z,61.70
2018-06-13T07:56:32.944Z,61.34
2018-06-13T07:59:01.051Z,61.65
2018-06-13T08:01:29.162Z,62.12
2018-06-13T08:03:57.374Z,61.92
2018-06-13T08:06:25.465Z,61.69
2018-06-13T08:08:53.531Z,61.56
2018-06-13T08:11:21.637Z,62.77
2018-06-13T08:13:49.747Z,61.70
2018-06-13T08:16:17.912Z,61.56
2018-06-13T08:18:46.007Z,62.29
2018-06-13T08:21:14.113Z,61.72
2018-06-13T08:23:42.276Z,61.70
2018-06-13T08:26:10.386Z,62.96
2018-06-13T08:28:38.606Z,62.65
2018-06-13T08:31:07.024Z,62.80
2018-06-13T08:33:35.202Z,63.28
2018-06-13T08:36:03.799Z,63.48
2018-06-13T08:38:31.956Z,63.67
2018-06-13T08:41:00.207Z,62.75
2018-06-13T08:43:28.339Z,63.73
2018-06-13T08:45:56.446Z,63.04
2018-06-13T08:48:24.572Z,63.88
2018-06-13T08:50:52.685Z,61.57
2018-06-13T08:53:20.784Z,62.04
2018-06-13T08:55:49.027Z,61.88
2018-06-13T08:58:17.104Z,61.65
2018-06-13T09:00:45.210Z,61.59
2018-06-13T09:03:13.318Z,61.73
2018-06-13T09:05:41.391Z,61.87
2018-06-13T09:08:09.496Z,62.23
2018-06-13T09:10:37.580Z,61.72
2018-06-13T09:13:05.706Z,61.85
2018-06-13T09:15:33.797Z,61.41
2018-06-13T09:18:01.872Z,62.29
2018-06-13T09:20:29.948Z,60.15
2018-06-13T09:22:58.119Z,61.08
2018-06-13T09:25:26.186Z,61.31
2018-06-13T09:27:54.331Z,60.60
2018-06-13T09:30:22.404Z,60.64
2018-06-13T09:32:50.490Z,58.65
2018-06-13T09:35:18.555Z,59.20
2018-06-13T09:37:46.637Z,58.78
2018-06-13T09:40:14.790Z,57.60
2018-06-13T09:42:43.806Z,58.09
2018-06-13T09:45:11.869Z,57.37
2018-06-13T09:47:39.942Z,57.78
2018-06-13T09:50:08.071Z,56.79
2018-06-13T09:52:36.099Z,57.17
2018-06-13T09:55:04.166Z,58.52
2018-06-13T09:57:32.263Z,58.88
2018-06-13T10:00:05.668Z,58.35
2018-06-13T10:02:37.361Z,58.72
2018-06-13T10:05:06.305Z,57.71
2018-06-13T10:07:34.405Z,58.39
2018-06-13T10:10:02.479Z,58.67
2018-06-13T10:12:30.577Z,59.19
2018-06-13T10:14:58.683Z,58.41
2018-06-13T10:17:26.759Z,59.36
2018-06-13T10:19:54.807Z,58.93
2018-06-13T10:22:22.900Z,58.95
2018-06-13T10:24:50.964Z,58.83
2018-06-13T10:27:24.339Z,58.54
2018-06-13T10:29:52.412Z,58.11
2018-06-13T10:32:23.348Z,58.05
2018-06-13T10:34:51.420Z,56.12
2018-06-13T10:37:19.504Z,57.75
2018-06-13T10:39:47.577Z,56.19
2018-06-13T10:42:15.699Z,57.01
2018-06-13T10:44:43.788Z,55.24
2018-06-13T10:47:11.912Z,55.91
2018-06-13T10:49:40.011Z,54.90
2018-06-13T10:52:08.131Z,53.96
2018-06-13T10:54:36.244Z,56.71
2018-06-13T10:57:04.348Z,53.35
2018-06-13T10:59:32.421Z,52.37
2018-06-13T11:02:00.515Z,52.88
2018-06-13T11:04:28.591Z,51.71
2018-06-13T11:06:56.662Z,51.66
2018-06-13T11:09:24.750Z,53.39
2018-06-13T11:11:52.890Z,53.77
2018-06-13T11:14:20.970Z,53.30
2018-06-13T11:16:49.055Z,53.67
2018-06-13T11:19:17.140Z,53.80
2018-06-13T11:21:45.198Z,54.28
2018-06-13T11:24:13.283Z,53.04
2018-06-13T11:26:41.515Z,53.10
2018-06-13T11:29:09.636Z,53.28
2018-06-13T11:31:37.827Z,53.63
2018-06-13T11:34:05.904Z,54.98
2018-06-13T11:36:33.989Z,53.96
2018-06-13T11:39:02.110Z,54.14
2018-06-13T11:41:30.218Z,54.46
2018-06-13T11:43:58.314Z,54.14
2018-06-13T11:46:26.399Z,53.71
2018-06-13T11:48:54.730Z,53.11
2018-06-13T11:51:22.846Z,53.26
2018-06-13T11:53:50.967Z,54.29
2018-06-13T11:56:20.695Z,53.64
2018-06-13T11:58:48.779Z,54.50
2018-06-13T12:01:16.868Z,53.44
2018-06-13T12:03:44.948Z,53.86
2018-06-13T12:06:13.046Z,54.25
2018-06-13T12:08:41.114Z,54.61
2018-06-13T12:11:09.179Z,54.86
2018-06-13T12:13:37.275Z,53.58
2018-06-13T12:16:05.404Z,54.69
2018-06-13T12:18:33.487Z,55.20
2018-06-13T12:21:01.564Z,53.63
2018-06-13T12:23:29.722Z,53.23
2018-06-13T12:25:57.816Z,53.52
2018-06-13T12:28:25.943Z,52.60
2018-06-13T12:30:54.051Z,53.24
2018-06-13T12:33:22.151Z,53.74
2018-06-13T12:35:50.236Z,54.24
2018-06-13T12:38:18.470Z,54.42
2018-06-13T12:40:46.550Z,54.82
2018-06-13T12:43:14.705Z,54.85
2018-06-13T12:45:45.895Z,53.82
2018-06-13T12:48:14.091Z,54.91
2018-06-13T12:50:42.274Z,54.95
2018-06-13T12:53:10.380Z,56.09
2018-06-13T12:55:38.494Z,54.98
2018-06-13T12:58:06.585Z,54.73
2018-06-13T13:00:34.734Z,55.32
2018-06-13T13:03:02.808Z,55.07
2018-06-13T13:05:30.895Z,52.26
2018-06-13T13:07:58.985Z,52.80
2018-06-13T13:10:27.059Z,52.12
2018-06-13T13:12:55.140Z,52.86
2018-06-13T13:15:23.263Z,51.80
2018-06-13T13:17:51.361Z,52.00
2018-06-13T13:20:19.510Z,51.93
2018-06-13T13:22:47.538Z,53.41
2018-06-13T13:25:15.653Z,53.07
2018-06-13T13:27:43.733Z,53.63
2018-06-13T13:30:11.858Z,55.85
2018-06-13T13:32:40.818Z,55.98
2018-06-13T13:35:08.931Z,57.76
2018-06-13T13:37:37.018Z,58.84
2018-06-13T13:40:05.095Z,57.58
2018-06-13T13:42:33.206Z,58.24
2018-06-13T13:45:01.316Z,59.01
2018-06-13T13:47:30.004Z,58.99
2018-06-13T13:49:58.067Z,58.27
2018-06-13T13:52:26.155Z,59.54
2018-06-13T13:54:54.272Z,59.94
2018-06-13T13:57:22.387Z,59.50
2018-06-13T13:59:50.465Z,59.55
2018-06-13T14:02:18.550Z,59.92
2018-06-13T14:04:46.696Z,58.97
2018-06-13T14:07:14.836Z,56.60
2018-06-13T14:09:42.942Z,58.79
2018-06-13T14:12:11.110Z,59.85
2018-06-13T14:14:39.191Z,58.90
2018-06-13T14:17:07.263Z,58.18
2018-06-13T14:19:35.363Z,58.92
2018-06-13T14:22:03.501Z,58.78
2018-06-13T14:24:31.564Z,60.12
2018-06-13T14:26:59.664Z,59.07
2018-06-13T14:29:27.774Z,58.64
2018-06-13T14:31:55.847Z,57.64
2018-06-13T14:34:23.945Z,57.39
2018-06-13T14:36:52.060Z,56.37
2018-06-13T14:39:20.133Z,55.51
2018-06-13T14:41:48.235Z,55.69
2018-06-13T14:44:16.335Z,56.25
2018-06-13T14:46:44.444Z,55.83
2018-06-13T14:49:12.544Z,54.74
2018-06-13T14:51:40.632Z,55.16
2018-06-13T14:54:08.796Z,58.26
2018-06-13T14:56:36.918Z,58.37
2018-06-13T14:59:05.006Z,55.83
2018-06-13T15:01:33.093Z,55.80
2018-06-13T15:04:01.175Z,56.22
2018-06-13T15:06:29.434Z,56.12
2018-06-13T15:08:57.540Z,58.13
2018-06-13T15:11:25.641Z,59.54
2018-06-13T15:13:53.711Z,61.18
2018-06-13T15:16:21.943Z,61.19
2018-06-13T15:18:50.055Z,62.06
2018-06-13T15:21:18.155Z,61.26
2018-06-13T15:23:46.244Z,59.12
2018-06-13T15:26:14.361Z,58.28
2018-06-13T15:28:42.418Z,57.89
2018-06-13T15:31:10.519Z,57.21
2018-06-13T15:33:38.675Z,55.77
2018-06-13T15:36:06.834Z,56.53
2018-06-13T15:38:34.932Z,56.53
2018-06-13T15:41:03.006Z,56.21
2018-06-13T15:43:31.086Z,56.09
2018-06-13T15:45:59.203Z,53.86
2018-06-13T15:48:27.310Z,53.00
2018-06-13T15:50:55.419Z,53.31
2018-06-13T15:53:23.494Z,54.10
2018-06-13T15:55:51.688Z,54.04
2018-06-13T15:58:19.784Z,54.38
2018-06-13T16:00:47.936Z,54.41
2018-06-13T16:03:16.027Z,54.62
2018-06-13T16:05:44.106Z,54.50
2018-06-13T16:09:25.617Z,54.66
2018-06-13T16:11:53.744Z,55.06
2018-06-13T16:14:21.853Z,55.31
2018-06-13T16:16:49.996Z,54.60
2018-06-13T16:19:18.084Z,54.55
2018-06-13T16:21:46.193Z,54.38
2018-06-13T16:24:14.250Z,53.70
2018-06-13T16:26:42.381Z,54.16
2018-06-13T16:29:10.498Z,54.83
2018-06-13T16:31:38.665Z,56.43
2018-06-13T16:34:06.794Z,56.24
2018-06-13T16:36:34.891Z,58.03
2018-06-13T16:39:02.993Z,58.46
2018-06-13T16:41:31.070Z,59.83
2018-06-13T16:43:59.156Z,57.86
2018-06-13T16:46:27.244Z,60.46
2018-06-13T16:48:55.350Z,59.06
2018-06-13T16:51:34.681Z,59.20
2018-06-13T16:54:11.200Z,58.38
2018-06-13T16:56:39.794Z,55.12
2018-06-13T16:59:08.144Z,57.01
2018-06-13T17:01:38.174Z,54.54
2018-06-13T17:04:07.913Z,57.68
2018-06-13T17:06:38.731Z,57.78
2018-06-13T17:09:09.992Z,56.15
2018-06-13T17:11:45.054Z,56.92
2018-06-13T17:14:15.772Z,55.71
2018-06-13T17:16:49.548Z,55.35
2018-06-13T17:19:26.844Z,55.20
2018-06-13T17:21:55.145Z,58.05
2018-06-13T17:24:25.093Z,57.74
2018-06-13T17:26:53.485Z,58.96
2018-06-13T17:29:24.747Z,59.11
2018-06-13T17:31:54.262Z,59.47
2018-06-13T17:34:23.609Z,61.26
2018-06-13T17:36:54.029Z,60.60
2018-06-13T17:39:24.481Z,61.60
2018-06-13T17:41:53.594Z,61.29
2018-06-13T17:44:22.231Z,61.95
2018-06-13T17:46:51.139Z,62.56
2018-06-13T17:49:20.252Z,61.06
2018-06-13T17:51:49.891Z,62.47
2018-06-13T17:54:18.331Z,61.46
2018-06-13T17:56:46.551Z,62.41
2018-06-13T17:59:15.517Z,62.30
2018-06-13T18:01:45.286Z,63.11
2018-06-13T18:04:16.415Z,62.83
2018-06-13T18:06:47.297Z,62.65
2018-06-13T18:09:15.716Z,64.00
2018-06-13T18:11:44.019Z,62.43
2018-06-13T18:14:12.373Z,62.89
2018-06-13T18:16:41.469Z,63.39
2018-06-13T18:19:11.741Z,63.67
2018-06-13T18:21:39.979Z,63.49
2018-06-13T18:24:08.278Z,62.97
2018-06-13T18:26:36.802Z,64.70
2018-06-13T18:29:05.232Z,64.74
2018-06-13T18:31:33.554Z,64.47
2018-06-13T18:34:03.408Z,64.65
2018-06-13T18:36:32.249Z,63.78
2018-06-13T18:39:00.515Z,63.91
2018-06-13T18:41:29.971Z,65.34
2018-06-13T18:43:59.526Z,65.45
2018-06-13T18:46:28.080Z,63.62
2018-06-13T18:48:58.359Z,63.89
2018-06-13T18:51:26.620Z,65.32
2018-06-13T18:53:55.899Z,65.34
2018-06-13T18:56:25.128Z,65.22
2018-06-13T18:58:55.983Z,65.26
2018-06-13T19:01:24.976Z,64.85
2018-06-13T19:03:53.493Z,64.46
2018-06-13T19:06:21.719Z,63.89
2018-06-13T19:08:49.938Z,62.93
2018-06-13T19:11:18.543Z,63.17
2018-06-13T19:13:46.849Z,63.84
2018-06-13T19:16:17.295Z,63.82
2018-06-13T19:18:47.014Z,64.08
2018-06-13T19:21:15.266Z,65.97
2018-06-13T19:23:45.821Z,65.40
2018-06-13T19:26:14.066Z,65.13
2018-06-13T19:28:42.978Z,65.11
2018-06-13T19:31:12.660Z,64.99
2018-06-13T19:33:42.021Z,65.95
2018-06-13T19:36:12.619Z,66.02
2018-06-13T19:38:42.509Z,67.01
2018-06-13T19:41:12.372Z,68.08
2018-06-13T19:43:42.591Z,67.96
2018-06-13T19:46:10.988Z,66.63
2018-06-13T19:48:44.445Z,65.73
2018-06-13T19:51:12.819Z,66.42
2018-06-13T19:53:46.448Z,66.88
2018-06-13T19:56:18.426Z,68.61
2018-06-13T19:58:46.780Z,66.91
2018-06-13T20:01:19.555Z,67.19
2018-06-13T20:03:53.369Z,67.82
2018-06-13T20:06:22.133Z,67.90
2018-06-13T20:08:50.398Z,68.56
2018-06-13T20:11:18.696Z,68.75
2018-06-13T20:13:52.391Z,68.55
2018-06-13T20:17:40.616Z,69.32
2018-06-13T20:20:09.504Z,69.40
2018-06-13T20:22:40.152Z,69.15
2018-06-13T20:25:13.680Z,70.57
2018-06-13T20:27:50.067Z,71.04
2018-06-13T20:30:27.828Z,69.97
2018-06-13T20:32:56.035Z,70.19
2018-06-13T20:35:24.340Z,71.15
2018-06-13T20:37:52.536Z,72.15
2018-06-13T20:40:21.129Z,72.53
2018-06-13T20:42:49.356Z,73.29
2018-06-13T20:45:17.603Z,73.23
2018-06-13T20:47:52.181Z,74.21
2018-06-13T20:50:22.287Z,75.53
2018-06-13T20:52:54.980Z,75.80
2018-06-13T20:55:23.880Z,75.75
2018-06-13T20:57:52.511Z,75.66
2018-06-13T21:00:20.818Z,76.30
2018-06-13T21:02:49.472Z,75.22
2018-06-13T21:05:17.707Z,77.62
2018-06-13T21:07:46.536Z,77.39
2018-06-13T21:10:15.498Z,78.14
2018-06-13T21:12:47.891Z,77.67
2018-06-13T21:15:16.851Z,77.17
2018-06-13T21:17:46.361Z,78.06
2018-06-13T21:20:14.764Z,78.83
2018-06-13T21:22:42.940Z,78.93
2018-06-13T21:25:11.431Z,78.95
2018-06-13T21:27:39.715Z,77.19
2018-06-13T21:30:08.019Z,76.42
2018-06-13T21:32:36.640Z,77.13
2018-06-13T21:35:08.565Z,77.40
2018-06-13T21:37:37.157Z,74.80
2018-06-13T21:40:05.471Z,74.66
2018-06-13T21:42:33.779Z,75.71
2018-06-13T21:45:03.023Z,75.43
2018-06-13T21:47:35.674Z,74.62
2018-06-13T21:50:03.941Z,73.78
2018-06-13T21:52:32.647Z,74.64
2018-06-13T21:55:01.038Z,76.21
2018-06-13T21:57:29.626Z,75.34
2018-06-13T21:59:57.953Z,73.39
2018-06-13T22:02:27.205Z,75.07
2018-06-13T22:04:55.520Z,76.80
2018-06-13T22:07:23.741Z,76.45
2018-06-13T22:09:51.983Z,77.05
2018-06-13T22:12:20.153Z,77.64
2018-06-13T22:14:48.427Z,78.82
2018-06-13T22:17:17.248Z,79.93
2018-06-13T22:19:47.119Z,80.39
2018-06-13T22:22:17.563Z,80.65
2018-06-13T22:24:47.005Z,79.86
2018-06-13T22:27:15.850Z,79.84
2018-06-13T22:29:44.670Z,80.56
2018-06-13T22:32:14.228Z,81.52
2018-06-13T22:34:42.495Z,81.56
2018-06-13T22:37:11.662Z,80.75
2018-06-13T22:39:40.932Z,80.87
2018-06-13T22:42:10.618Z,81.05
2018-06-13T22:46:20.603Z,81.88
2018-06-13T22:48:49.776Z,81.90
2018-06-13T22:51:18.169Z,80.72
2018-06-13T22:53:47.183Z,81.29
2018-06-13T22:56:18.092Z,81.72
2018-06-13T22:58:46.594Z,83.09
2018-06-13T23:01:14.872Z,83.78
2018-06-13T23:03:44.507Z,84.38
2018-06-13T23:06:13.504Z,84.04
2018-06-13T23:08:45.731Z,83.71
2018-06-13T23:11:14.689Z,83.26
2018-06-13T23:13:43.028Z,83.79
2018-06-13T23:16:12.661Z,83.82
2018-06-13T23:18:42.730Z,83.40
2018-06-13T23:21:13.083Z,83.09
2018-06-13T23:23:42.389Z,84.06
2018-06-13T23:26:11.957Z,84.02
2018-06-13T23:28:41.187Z,83.94
2018-06-13T23:31:11.484Z,83.90
2018-06-13T23:33:40.008Z,84.56
2018-06-13T23:36:09.153Z,84.55
2018-06-13T23:38:39.786Z,83.65
2018-06-13T23:41:08.374Z,83.93
2018-06-13T23:43:39.311Z,83.11
2018-06-13T23:46:07.383Z,84.60
2018-06-13T23:48:35.476Z,84.45
2018-06-13T23:51:03.579Z,84.52
2018-06-13T23:53:31.668Z,85.36
2018-06-13T23:55:59.828Z,84.90
2018-06-13T23:58:27.923Z,84.19
